sensor_id;sensor_type;location;lat;lon;timestamp;P1;durP1;ratioP1;P2;durP2;ratioP2
66585;SDS011;53444;45.822;16.092;2023-03-14T00:00:19;6.18;;;3.70;;
66585;SDS011;53444;45.822;16.092;2023-03-14T00:02:45;5.40;;;2.78;;
66585;SDS011;53444;45.822;16.092;2023-03-14T00:05:17;6.95;;;2.83;;
66585;SDS011;53444;45.822;16.092;2023-03-14T00:07:44;5.20;;;2.80;;
66585;SDS011;53444;45.822;16.092;2023-03-14T00:10:11;10.17;;;4.67;;
66585;SDS011;53444;45.822;16.092;2023-03-14T00:12:39;6.97;;;3.58;;
66585;SDS011;53444;45.822;16.092;2023-03-14T00:15:06;11.00;;;3.72;;
66585;SDS011;53444;45.822;16.092;2023-03-14T00:17:35;4.93;;;2.80;;
66585;SDS011;53444;45.822;16.092;2023-03-14T00:20:02;7.63;;;2.60;;
66585;SDS011;53444;45.822;16.092;2023-03-14T00:22:33;5.73;;;2.00;;
66585;SDS011;53444;45.822;16.092;2023-03-14T00:25:00;4.78;;;2.45;;
66585;SDS011;53444;45.822;16.092;2023-03-14T00:27:27;7.70;;;2.08;;
66585;SDS011;53444;45.822;16.092;2023-03-14T00:29:54;5.57;;;2.35;;
66585;SDS011;53444;45.822;16.092;2023-03-14T00:32:20;5.15;;;2.38;;
66585;SDS011;53444;45.822;16.092;2023-03-14T00:34:48;6.40;;;2.80;;
66585;SDS011;53444;45.822;16.092;2023-03-14T00:37:15;5.35;;;2.35;;
66585;SDS011;53444;45.822;16.092;2023-03-14T00:39:42;4.82;;;2.40;;
66585;SDS011;53444;45.822;16.092;2023-03-14T00:42:09;4.47;;;2.08;;
66585;SDS011;53444;45.822;16.092;2023-03-14T00:44:35;4.05;;;2.10;;
66585;SDS011;53444;45.822;16.092;2023-03-14T00:47:02;3.47;;;2.00;;
66585;SDS011;53444;45.822;16.092;2023-03-14T00:49:29;8.40;;;2.50;;
66585;SDS011;53444;45.822;16.092;2023-03-14T00:51:57;5.43;;;2.97;;
66585;SDS011;53444;45.822;16.092;2023-03-14T00:54:24;6.18;;;3.33;;
66585;SDS011;53444;45.822;16.092;2023-03-14T00:56:50;6.32;;;2.40;;
66585;SDS011;53444;45.822;16.092;2023-03-14T00:59:17;5.47;;;2.57;;
66585;SDS011;53444;45.822;16.092;2023-03-14T01:01:44;6.90;;;3.55;;
66585;SDS011;53444;45.822;16.092;2023-03-14T01:04:11;7.38;;;3.40;;
66585;SDS011;53444;45.822;16.092;2023-03-14T01:06:38;4.43;;;2.92;;
66585;SDS011;53444;45.822;16.092;2023-03-14T01:09:06;6.00;;;2.30;;
66585;SDS011;53444;45.822;16.092;2023-03-14T01:11:33;4.13;;;1.83;;
66585;SDS011;53444;45.822;16.092;2023-03-14T01:14:01;3.35;;;2.00;;
66585;SDS011;53444;45.822;16.092;2023-03-14T01:16:30;3.53;;;2.67;;
66585;SDS011;53444;45.822;16.092;2023-03-14T01:19:00;4.80;;;2.65;;
66585;SDS011;53444;45.822;16.092;2023-03-14T01:21:28;5.15;;;2.30;;
66585;SDS011;53444;45.822;16.092;2023-03-14T01:23:56;4.10;;;2.10;;
66585;SDS011;53444;45.822;16.092;2023-03-14T01:26:26;4.57;;;2.65;;
66585;SDS011;53444;45.822;16.092;2023-03-14T01:28:54;8.00;;;3.90;;
66585;SDS011;53444;45.822;16.092;2023-03-14T01:31:21;8.07;;;5.05;;
66585;SDS011;53444;45.822;16.092;2023-03-14T01:33:48;6.47;;;4.03;;
66585;SDS011;53444;45.822;16.092;2023-03-14T01:36:15;8.23;;;3.67;;
66585;SDS011;53444;45.822;16.092;2023-03-14T01:38:42;5.80;;;3.17;;
66585;SDS011;53444;45.822;16.092;2023-03-14T01:41:11;3.75;;;2.42;;
66585;SDS011;53444;45.822;16.092;2023-03-14T01:43:41;3.65;;;2.08;;
66585;SDS011;53444;45.822;16.092;2023-03-14T01:49:02;5.90;;;2.43;;
66585;SDS011;53444;45.822;16.092;2023-03-14T01:51:42;6.53;;;2.42;;
66585;SDS011;53444;45.822;16.092;2023-03-14T01:54:15;4.57;;;2.22;;
66585;SDS011;53444;45.822;16.092;2023-03-14T01:56:45;3.35;;;1.80;;
66585;SDS011;53444;45.822;16.092;2023-03-14T01:59:16;4.43;;;2.28;;
66585;SDS011;53444;45.822;16.092;2023-03-14T02:01:43;4.90;;;1.90;;
66585;SDS011;53444;45.822;16.092;2023-03-14T02:04:12;3.03;;;1.90;;
66585;SDS011;53444;45.822;16.092;2023-03-14T02:06:43;3.03;;;1.85;;
66585;SDS011;53444;45.822;16.092;2023-03-14T02:09:14;3.13;;;1.50;;
66585;SDS011;53444;45.822;16.092;2023-03-14T02:11:41;5.88;;;2.00;;
66585;SDS011;53444;45.822;16.092;2023-03-14T02:14:09;2.73;;;1.60;;
66585;SDS011;53444;45.822;16.092;2023-03-14T02:16:45;2.65;;;1.63;;
66585;SDS011;53444;45.822;16.092;2023-03-14T02:19:11;6.70;;;2.10;;
66585;SDS011;53444;45.822;16.092;2023-03-14T02:21:45;3.30;;;1.83;;
66585;SDS011;53444;45.822;16.092;2023-03-14T02:24:21;4.40;;;2.22;;
66585;SDS011;53444;45.822;16.092;2023-03-14T02:27:08;4.53;;;2.20;;
66585;SDS011;53444;45.822;16.092;2023-03-14T02:29:38;4.28;;;1.73;;
66585;SDS011;53444;45.822;16.092;2023-03-14T02:32:11;3.75;;;1.60;;
66585;SDS011;53444;45.822;16.092;2023-03-14T02:34:39;4.50;;;1.67;;
66585;SDS011;53444;45.822;16.092;2023-03-14T02:37:09;2.22;;;1.23;;
66585;SDS011;53444;45.822;16.092;2023-03-14T02:39:38;5.40;;;1.30;;
66585;SDS011;53444;45.822;16.092;2023-03-14T02:42:06;4.25;;;1.40;;
66585;SDS011;53444;45.822;16.092;2023-03-14T02:44:34;4.03;;;1.52;;
66585;SDS011;53444;45.822;16.092;2023-03-14T02:47:02;4.35;;;1.48;;
66585;SDS011;53444;45.822;16.092;2023-03-14T02:49:29;4.55;;;1.80;;
66585;SDS011;53444;45.822;16.092;2023-03-14T02:51:59;4.03;;;1.37;;
66585;SDS011;53444;45.822;16.092;2023-03-14T02:54:26;3.58;;;1.73;;
66585;SDS011;53444;45.822;16.092;2023-03-14T02:56:52;3.75;;;1.63;;
66585;SDS011;53444;45.822;16.092;2023-03-14T02:59:19;2.92;;;1.30;;
66585;SDS011;53444;45.822;16.092;2023-03-14T03:01:47;3.17;;;1.20;;
66585;SDS011;53444;45.822;16.092;2023-03-14T03:04:14;2.40;;;1.07;;
66585;SDS011;53444;45.822;16.092;2023-03-14T03:06:40;5.40;;;1.48;;
66585;SDS011;53444;45.822;16.092;2023-03-14T03:09:07;5.20;;;1.70;;
66585;SDS011;53444;45.822;16.092;2023-03-14T03:11:34;3.25;;;1.30;;
66585;SDS011;53444;45.822;16.092;2023-03-14T03:14:01;3.53;;;1.52;;
66585;SDS011;53444;45.822;16.092;2023-03-14T03:16:27;2.47;;;1.13;;
66585;SDS011;53444;45.822;16.092;2023-03-14T03:18:55;3.05;;;1.60;;
66585;SDS011;53444;45.822;16.092;2023-03-14T03:21:22;3.53;;;1.20;;
66585;SDS011;53444;45.822;16.092;2023-03-14T03:23:49;2.40;;;1.30;;
66585;SDS011;53444;45.822;16.092;2023-03-14T03:26:16;2.00;;;1.13;;
66585;SDS011;53444;45.822;16.092;2023-03-14T03:28:43;3.73;;;1.50;;
66585;SDS011;53444;45.822;16.092;2023-03-14T03:31:10;1.80;;;1.10;;
66585;SDS011;53444;45.822;16.092;2023-03-14T03:33:37;3.25;;;1.40;;
66585;SDS011;53444;45.822;16.092;2023-03-14T03:36:06;3.30;;;1.40;;
66585;SDS011;53444;45.822;16.092;2023-03-14T03:38:34;2.40;;;1.30;;
66585;SDS011;53444;45.822;16.092;2023-03-14T03:41:01;4.30;;;1.33;;
66585;SDS011;53444;45.822;16.092;2023-03-14T03:43:29;3.35;;;1.48;;
66585;SDS011;53444;45.822;16.092;2023-03-14T03:45:55;4.07;;;1.38;;
66585;SDS011;53444;45.822;16.092;2023-03-14T03:48:22;2.33;;;1.05;;
66585;SDS011;53444;45.822;16.092;2023-03-14T03:50:49;2.95;;;1.27;;
66585;SDS011;53444;45.822;16.092;2023-03-14T03:53:17;2.73;;;1.13;;
66585;SDS011;53444;45.822;16.092;2023-03-14T03:55:44;3.20;;;1.20;;
66585;SDS011;53444;45.822;16.092;2023-03-14T03:58:10;2.83;;;1.08;;
66585;SDS011;53444;45.822;16.092;2023-03-14T04:00:37;3.20;;;1.33;;
66585;SDS011;53444;45.822;16.092;2023-03-14T04:03:04;2.45;;;0.93;;
66585;SDS011;53444;45.822;16.092;2023-03-14T04:05:31;3.37;;;1.30;;
66585;SDS011;53444;45.822;16.092;2023-03-14T04:07:59;6.80;;;1.50;;
66585;SDS011;53444;45.822;16.092;2023-03-14T04:10:27;3.88;;;1.50;;
66585;SDS011;53444;45.822;16.092;2023-03-14T04:12:54;4.88;;;1.98;;
66585;SDS011;53444;45.822;16.092;2023-03-14T04:15:20;4.03;;;1.35;;
66585;SDS011;53444;45.822;16.092;2023-03-14T04:17:47;3.07;;;1.23;;
66585;SDS011;53444;45.822;16.092;2023-03-14T04:20:14;4.13;;;1.70;;
66585;SDS011;53444;45.822;16.092;2023-03-14T04:22:40;2.90;;;1.35;;
66585;SDS011;53444;45.822;16.092;2023-03-14T04:25:07;3.95;;;1.52;;
66585;SDS011;53444;45.822;16.092;2023-03-14T04:27:36;3.08;;;1.30;;
66585;SDS011;53444;45.822;16.092;2023-03-14T04:30:02;2.50;;;1.13;;
66585;SDS011;53444;45.822;16.092;2023-03-14T04:32:30;3.33;;;1.35;;
66585;SDS011;53444;45.822;16.092;2023-03-14T04:34:56;3.40;;;1.35;;
66585;SDS011;53444;45.822;16.092;2023-03-14T04:37:23;4.03;;;1.70;;
66585;SDS011;53444;45.822;16.092;2023-03-14T04:39:50;3.67;;;1.60;;
66585;SDS011;53444;45.822;16.092;2023-03-14T04:42:16;2.50;;;1.30;;
66585;SDS011;53444;45.822;16.092;2023-03-14T04:44:44;4.25;;;1.50;;
66585;SDS011;53444;45.822;16.092;2023-03-14T04:47:11;10.32;;;3.67;;
66585;SDS011;53444;45.822;16.092;2023-03-14T04:49:38;5.40;;;1.73;;
66585;SDS011;53444;45.822;16.092;2023-03-14T04:52:05;5.68;;;1.98;;
66585;SDS011;53444;45.822;16.092;2023-03-14T04:54:31;4.47;;;1.70;;
66585;SDS011;53444;45.822;16.092;2023-03-14T04:56:58;4.82;;;1.70;;
66585;SDS011;53444;45.822;16.092;2023-03-14T04:59:25;4.97;;;1.60;;
66585;SDS011;53444;45.822;16.092;2023-03-14T05:01:53;21.42;;;8.63;;
66585;SDS011;53444;45.822;16.092;2023-03-14T05:04:19;14.35;;;5.93;;
66585;SDS011;53444;45.822;16.092;2023-03-14T05:06:46;8.10;;;2.70;;
66585;SDS011;53444;45.822;16.092;2023-03-14T05:09:13;4.55;;;1.70;;
66585;SDS011;53444;45.822;16.092;2023-03-14T05:11:40;5.60;;;2.53;;
66585;SDS011;53444;45.822;16.092;2023-03-14T05:14:07;3.42;;;1.80;;
66585;SDS011;53444;45.822;16.092;2023-03-14T05:16:33;4.13;;;1.83;;
66585;SDS011;53444;45.822;16.092;2023-03-14T05:19:01;11.23;;;3.97;;
66585;SDS011;53444;45.822;16.092;2023-03-14T05:21:28;19.88;;;6.93;;
66585;SDS011;53444;45.822;16.092;2023-03-14T05:23:55;16.08;;;6.07;;
66585;SDS011;53444;45.822;16.092;2023-03-14T05:26:21;19.40;;;8.45;;
66585;SDS011;53444;45.822;16.092;2023-03-14T05:28:48;14.60;;;6.97;;
66585;SDS011;53444;45.822;16.092;2023-03-14T05:31:15;12.63;;;5.83;;
66585;SDS011;53444;45.822;16.092;2023-03-14T05:33:42;9.80;;;4.22;;
66585;SDS011;53444;45.822;16.092;2023-03-14T05:36:10;7.90;;;2.75;;
66585;SDS011;53444;45.822;16.092;2023-03-14T05:38:37;7.05;;;3.67;;
66585;SDS011;53444;45.822;16.092;2023-03-14T05:41:03;5.45;;;3.28;;
66585;SDS011;53444;45.822;16.092;2023-03-14T05:43:30;3.80;;;2.00;;
66585;SDS011;53444;45.822;16.092;2023-03-14T05:45:57;4.45;;;1.60;;
66585;SDS011;53444;45.822;16.092;2023-03-14T05:48:24;5.45;;;1.88;;
66585;SDS011;53444;45.822;16.092;2023-03-14T05:50:54;3.75;;;1.52;;
66585;SDS011;53444;45.822;16.092;2023-03-14T05:53:22;8.40;;;3.70;;
66585;SDS011;53444;45.822;16.092;2023-03-14T05:55:50;7.07;;;2.87;;
66585;SDS011;53444;45.822;16.092;2023-03-14T05:58:17;4.38;;;2.33;;
66585;SDS011;53444;45.822;16.092;2023-03-14T06:00:44;5.25;;;2.25;;
66585;SDS011;53444;45.822;16.092;2023-03-14T06:03:11;7.53;;;2.90;;
66585;SDS011;53444;45.822;16.092;2023-03-14T06:05:37;7.05;;;3.25;;
66585;SDS011;53444;45.822;16.092;2023-03-14T06:08:04;5.73;;;2.57;;
66585;SDS011;53444;45.822;16.092;2023-03-14T06:10:32;6.78;;;2.70;;
66585;SDS011;53444;45.822;16.092;2023-03-14T06:13:01;6.40;;;2.15;;
66585;SDS011;53444;45.822;16.092;2023-03-14T06:15:28;7.82;;;2.97;;
66585;SDS011;53444;45.822;16.092;2023-03-14T06:17:55;8.93;;;3.72;;
66585;SDS011;53444;45.822;16.092;2023-03-14T06:20:22;6.37;;;2.83;;
66585;SDS011;53444;45.822;16.092;2023-03-14T06:22:49;4.85;;;2.70;;
66585;SDS011;53444;45.822;16.092;2023-03-14T06:25:15;5.57;;;2.40;;
66585;SDS011;53444;45.822;16.092;2023-03-14T06:27:44;5.35;;;2.20;;
66585;SDS011;53444;45.822;16.092;2023-03-14T06:30:11;4.13;;;1.85;;
66585;SDS011;53444;45.822;16.092;2023-03-14T06:32:38;3.33;;;1.80;;
66585;SDS011;53444;45.822;16.092;2023-03-14T06:35:05;6.35;;;2.50;;
66585;SDS011;53444;45.822;16.092;2023-03-14T06:37:32;4.90;;;2.17;;
66585;SDS011;53444;45.822;16.092;2023-03-14T06:39:58;4.95;;;2.35;;
66585;SDS011;53444;45.822;16.092;2023-03-14T06:42:25;8.25;;;2.72;;
66585;SDS011;53444;45.822;16.092;2023-03-14T06:44:53;4.03;;;1.87;;
66585;SDS011;53444;45.822;16.092;2023-03-14T06:47:20;4.68;;;1.90;;
66585;SDS011;53444;45.822;16.092;2023-03-14T06:49:46;6.07;;;2.00;;
66585;SDS011;53444;45.822;16.092;2023-03-14T06:52:13;5.65;;;2.05;;
66585;SDS011;53444;45.822;16.092;2023-03-14T06:54:40;7.93;;;2.25;;
66585;SDS011;53444;45.822;16.092;2023-03-14T06:57:06;6.33;;;2.37;;
66585;SDS011;53444;45.822;16.092;2023-03-14T06:59:33;4.65;;;1.90;;
66585;SDS011;53444;45.822;16.092;2023-03-14T07:02:01;4.22;;;1.85;;
66585;SDS011;53444;45.822;16.092;2023-03-14T07:04:28;2.65;;;1.52;;
66585;SDS011;53444;45.822;16.092;2023-03-14T07:06:54;4.15;;;1.92;;
66585;SDS011;53444;45.822;16.092;2023-03-14T07:09:21;4.63;;;1.83;;
66585;SDS011;53444;45.822;16.092;2023-03-14T07:11:48;6.63;;;3.08;;
66585;SDS011;53444;45.822;16.092;2023-03-14T07:14:15;13.00;;;3.47;;
66585;SDS011;53444;45.822;16.092;2023-03-14T07:16:41;5.63;;;2.50;;
66585;SDS011;53444;45.822;16.092;2023-03-14T07:19:09;5.95;;;2.58;;
66585;SDS011;53444;45.822;16.092;2023-03-14T07:21:36;8.67;;;2.60;;
66585;SDS011;53444;45.822;16.092;2023-03-14T07:24:03;8.43;;;2.33;;
66585;SDS011;53444;45.822;16.092;2023-03-14T07:26:30;4.90;;;2.50;;
66585;SDS011;53444;45.822;16.092;2023-03-14T07:28:56;3.88;;;1.63;;
66585;SDS011;53444;45.822;16.092;2023-03-14T07:31:23;8.75;;;2.28;;
66585;SDS011;53444;45.822;16.092;2023-03-14T07:33:50;5.67;;;2.20;;
66585;SDS011;53444;45.822;16.092;2023-03-14T07:36:18;6.18;;;2.75;;
66585;SDS011;53444;45.822;16.092;2023-03-14T07:38:44;5.68;;;2.60;;
66585;SDS011;53444;45.822;16.092;2023-03-14T07:41:11;4.53;;;2.20;;
66585;SDS011;53444;45.822;16.092;2023-03-14T07:43:42;4.60;;;2.08;;
66585;SDS011;53444;45.822;16.092;2023-03-14T07:46:11;4.53;;;2.27;;
66585;SDS011;53444;45.822;16.092;2023-03-14T07:48:38;3.75;;;2.00;;
66585;SDS011;53444;45.822;16.092;2023-03-14T07:51:05;5.28;;;2.40;;
66585;SDS011;53444;45.822;16.092;2023-03-14T07:53:42;5.13;;;1.75;;
66585;SDS011;53444;45.822;16.092;2023-03-14T07:56:10;7.85;;;2.58;;
66585;SDS011;53444;45.822;16.092;2023-03-14T07:58:37;8.60;;;2.97;;
66585;SDS011;53444;45.822;16.092;2023-03-14T08:01:04;6.90;;;2.38;;
66585;SDS011;53444;45.822;16.092;2023-03-14T08:03:33;5.28;;;2.00;;
66585;SDS011;53444;45.822;16.092;2023-03-14T08:06:00;8.60;;;3.30;;
66585;SDS011;53444;45.822;16.092;2023-03-14T08:08:27;8.05;;;2.80;;
66585;SDS011;53444;45.822;16.092;2023-03-14T08:10:55;9.07;;;3.07;;
66585;SDS011;53444;45.822;16.092;2023-03-14T08:13:21;7.18;;;2.60;;
66585;SDS011;53444;45.822;16.092;2023-03-14T08:15:51;5.05;;;2.00;;
66585;SDS011;53444;45.822;16.092;2023-03-14T08:18:17;8.13;;;2.83;;
66585;SDS011;53444;45.822;16.092;2023-03-14T08:20:44;6.65;;;2.60;;
66585;SDS011;53444;45.822;16.092;2023-03-14T08:23:11;4.07;;;1.63;;
66585;SDS011;53444;45.822;16.092;2023-03-14T08:25:37;5.25;;;1.60;;
66585;SDS011;53444;45.822;16.092;2023-03-14T08:28:06;7.70;;;2.28;;
66585;SDS011;53444;45.822;16.092;2023-03-14T08:30:32;5.10;;;1.80;;
66585;SDS011;53444;45.822;16.092;2023-03-14T08:32:59;5.07;;;2.40;;
66585;SDS011;53444;45.822;16.092;2023-03-14T08:35:26;3.37;;;1.77;;
66585;SDS011;53444;45.822;16.092;2023-03-14T08:37:53;3.70;;;1.55;;
66585;SDS011;53444;45.822;16.092;2023-03-14T08:40:20;4.53;;;1.67;;
66585;SDS011;53444;45.822;16.092;2023-03-14T08:42:47;3.97;;;1.60;;
66585;SDS011;53444;45.822;16.092;2023-03-14T08:45:15;2.17;;;1.27;;
66585;SDS011;53444;45.822;16.092;2023-03-14T08:47:42;2.60;;;1.03;;
66585;SDS011;53444;45.822;16.092;2023-03-14T08:50:10;1.42;;;1.00;;
66585;SDS011;53444;45.822;16.092;2023-03-14T08:52:37;2.92;;;1.60;;
66585;SDS011;53444;45.822;16.092;2023-03-14T08:55:06;2.75;;;1.05;;
66585;SDS011;53444;45.822;16.092;2023-03-14T08:57:33;5.53;;;1.10;;
66585;SDS011;53444;45.822;16.092;2023-03-14T09:00:02;2.30;;;1.40;;
66585;SDS011;53444;45.822;16.092;2023-03-14T09:02:36;4.35;;;1.60;;
66585;SDS011;53444;45.822;16.092;2023-03-14T09:05:03;2.90;;;1.27;;
66585;SDS011;53444;45.822;16.092;2023-03-14T09:07:30;4.75;;;1.45;;
66585;SDS011;53444;45.822;16.092;2023-03-14T09:09:57;4.45;;;1.40;;
66585;SDS011;53444;45.822;16.092;2023-03-14T09:12:24;2.83;;;1.10;;
66585;SDS011;53444;45.822;16.092;2023-03-14T09:14:51;2.72;;;1.48;;
66585;SDS011;53444;45.822;16.092;2023-03-14T09:17:20;3.45;;;1.30;;
66585;SDS011;53444;45.822;16.092;2023-03-14T09:19:48;2.40;;;1.00;;
66585;SDS011;53444;45.822;16.092;2023-03-14T09:22:15;3.28;;;1.90;;
66585;SDS011;53444;45.822;16.092;2023-03-14T09:24:41;2.50;;;1.30;;
66585;SDS011;53444;45.822;16.092;2023-03-14T09:27:08;3.83;;;1.25;;
66585;SDS011;53444;45.822;16.092;2023-03-14T09:29:35;2.35;;;1.40;;
66585;SDS011;53444;45.822;16.092;2023-03-14T09:32:01;3.22;;;1.25;;
66585;SDS011;53444;45.822;16.092;2023-03-14T09:34:28;5.72;;;1.80;;
66585;SDS011;53444;45.822;16.092;2023-03-14T09:36:57;1.70;;;0.80;;
66585;SDS011;53444;45.822;16.092;2023-03-14T09:39:23;2.83;;;1.40;;
66585;SDS011;53444;45.822;16.092;2023-03-14T09:41:50;2.45;;;1.70;;
66585;SDS011;53444;45.822;16.092;2023-03-14T09:44:20;2.92;;;1.50;;
66585;SDS011;53444;45.822;16.092;2023-03-14T09:46:50;2.35;;;1.38;;
66585;SDS011;53444;45.822;16.092;2023-03-14T09:49:19;3.53;;;1.50;;
66585;SDS011;53444;45.822;16.092;2023-03-14T09:51:50;2.40;;;1.40;;
66585;SDS011;53444;45.822;16.092;2023-03-14T09:57:11;2.30;;;1.15;;
66585;SDS011;53444;45.822;16.092;2023-03-14T09:59:40;3.55;;;1.88;;
66585;SDS011;53444;45.822;16.092;2023-03-14T10:02:14;4.13;;;2.20;;
66585;SDS011;53444;45.822;16.092;2023-03-14T10:04:44;6.00;;;2.17;;
66585;SDS011;53444;45.822;16.092;2023-03-14T10:07:13;3.03;;;1.80;;
66585;SDS011;53444;45.822;16.092;2023-03-14T10:09:46;2.78;;;1.70;;
66585;SDS011;53444;45.822;16.092;2023-03-14T10:12:15;4.07;;;2.08;;
66585;SDS011;53444;45.822;16.092;2023-03-14T10:14:46;3.97;;;2.20;;
66585;SDS011;53444;45.822;16.092;2023-03-14T10:17:15;4.45;;;2.10;;
66585;SDS011;53444;45.822;16.092;2023-03-14T10:19:53;3.63;;;2.28;;
66585;SDS011;53444;45.822;16.092;2023-03-14T10:22:23;6.20;;;1.60;;
66585;SDS011;53444;45.822;16.092;2023-03-14T10:24:54;3.13;;;1.80;;
66585;SDS011;53444;45.822;16.092;2023-03-14T10:27:27;1.73;;;1.50;;
66585;SDS011;53444;45.822;16.092;2023-03-14T10:29:55;1.90;;;1.20;;
66585;SDS011;53444;45.822;16.092;2023-03-14T10:32:27;2.63;;;1.58;;
66585;SDS011;53444;45.822;16.092;2023-03-14T10:35:05;3.05;;;1.60;;
66585;SDS011;53444;45.822;16.092;2023-03-14T10:37:48;3.03;;;1.70;;
66585;SDS011;53444;45.822;16.092;2023-03-14T10:40:19;2.93;;;1.30;;
66585;SDS011;53444;45.822;16.092;2023-03-14T10:42:50;1.73;;;1.20;;
66585;SDS011;53444;45.822;16.092;2023-03-14T10:45:27;1.60;;;1.17;;
66585;SDS011;53444;45.822;16.092;2023-03-14T10:47:58;2.60;;;1.13;;
66585;SDS011;53444;45.822;16.092;2023-03-14T10:50:27;1.70;;;1.20;;
66585;SDS011;53444;45.822;16.092;2023-03-14T10:52:55;2.33;;;1.30;;
66585;SDS011;53444;45.822;16.092;2023-03-14T10:55:24;2.10;;;1.42;;
66585;SDS011;53444;45.822;16.092;2023-03-14T10:57:51;2.38;;;1.65;;
66585;SDS011;53444;45.822;16.092;2023-03-14T11:00:19;2.80;;;1.58;;
66585;SDS011;53444;45.822;16.092;2023-03-14T11:03:00;2.53;;;1.50;;
66585;SDS011;53444;45.822;16.092;2023-03-14T11:05:36;3.10;;;1.40;;
66585;SDS011;53444;45.822;16.092;2023-03-14T11:08:09;1.52;;;1.35;;
66585;SDS011;53444;45.822;16.092;2023-03-14T11:10:41;1.60;;;1.30;;
66585;SDS011;53444;45.822;16.092;2023-03-14T11:13:15;2.17;;;1.10;;
66585;SDS011;53444;45.822;16.092;2023-03-14T11:15:48;2.13;;;1.60;;
66585;SDS011;53444;45.822;16.092;2023-03-14T11:18:26;1.90;;;1.13;;
66585;SDS011;53444;45.822;16.092;2023-03-14T11:21:07;1.50;;;1.38;;
66585;SDS011;53444;45.822;16.092;2023-03-14T11:23:40;1.85;;;1.30;;
66585;SDS011;53444;45.822;16.092;2023-03-14T11:26:17;3.35;;;1.58;;
66585;SDS011;53444;45.822;16.092;2023-03-14T11:28:52;2.75;;;1.65;;
66585;SDS011;53444;45.822;16.092;2023-03-14T11:31:24;2.20;;;1.30;;
66585;SDS011;53444;45.822;16.092;2023-03-14T11:33:54;4.20;;;1.13;;
66585;SDS011;53444;45.822;16.092;2023-03-14T11:36:25;1.85;;;1.30;;
66585;SDS011;53444;45.822;16.092;2023-03-14T11:38:58;2.40;;;1.25;;
66585;SDS011;53444;45.822;16.092;2023-03-14T11:41:29;2.03;;;1.30;;
66585;SDS011;53444;45.822;16.092;2023-03-14T11:43:59;1.83;;;1.17;;
66585;SDS011;53444;45.822;16.092;2023-03-14T11:46:29;2.17;;;1.23;;
66585;SDS011;53444;45.822;16.092;2023-03-14T11:49:01;2.90;;;1.42;;
66585;SDS011;53444;45.822;16.092;2023-03-14T11:51:32;2.05;;;1.33;;
66585;SDS011;53444;45.822;16.092;2023-03-14T11:54:03;2.85;;;1.40;;
66585;SDS011;53444;45.822;16.092;2023-03-14T11:56:42;3.57;;;1.40;;
66585;SDS011;53444;45.822;16.092;2023-03-14T11:59:13;3.63;;;1.58;;
66585;SDS011;53444;45.822;16.092;2023-03-14T12:01:51;3.33;;;1.90;;
66585;SDS011;53444;45.822;16.092;2023-03-14T12:04:23;2.17;;;1.55;;
66585;SDS011;53444;45.822;16.092;2023-03-14T12:07:01;2.05;;;1.67;;
66585;SDS011;53444;45.822;16.092;2023-03-14T12:09:29;3.17;;;1.40;;
66585;SDS011;53444;45.822;16.092;2023-03-14T12:11:59;4.93;;;2.10;;
66585;SDS011;53444;45.822;16.092;2023-03-14T12:14:29;2.15;;;1.70;;
66585;SDS011;53444;45.822;16.092;2023-03-14T12:16:58;5.03;;;2.30;;
66585;SDS011;53444;45.822;16.092;2023-03-14T12:19:32;4.55;;;2.65;;
66585;SDS011;53444;45.822;16.092;2023-03-14T12:24:54;8.77;;;3.50;;
66585;SDS011;53444;45.822;16.092;2023-03-14T12:27:41;5.05;;;2.70;;
66585;SDS011;53444;45.822;16.092;2023-03-14T12:30:16;5.22;;;2.20;;
66585;SDS011;53444;45.822;16.092;2023-03-14T12:35:58;5.37;;;2.33;;
66585;SDS011;53444;45.822;16.092;2023-03-14T12:38:29;5.03;;;1.77;;
66585;SDS011;53444;45.822;16.092;2023-03-14T12:41:11;5.20;;;2.60;;
66585;SDS011;53444;45.822;16.092;2023-03-14T12:43:42;4.72;;;1.98;;
66585;SDS011;53444;45.822;16.092;2023-03-14T12:46:15;6.40;;;3.10;;
66585;SDS011;53444;45.822;16.092;2023-03-14T12:48:47;5.17;;;2.10;;
66585;SDS011;53444;45.822;16.092;2023-03-14T12:51:16;2.65;;;1.70;;
66585;SDS011;53444;45.822;16.092;2023-03-14T12:53:53;3.10;;;1.75;;
66585;SDS011;53444;45.822;16.092;2023-03-14T12:56:37;4.28;;;2.40;;
66585;SDS011;53444;45.822;16.092;2023-03-14T13:47:32;2.83;;;1.20;;
66585;SDS011;53444;45.822;16.092;2023-03-14T13:49:59;2.33;;;1.20;;
66585;SDS011;53444;45.822;16.092;2023-03-14T13:52:30;5.75;;;1.50;;
66585;SDS011;53444;45.822;16.092;2023-03-14T13:54:59;3.38;;;1.75;;
66585;SDS011;53444;45.822;16.092;2023-03-14T13:57:28;5.87;;;1.13;;
66585;SDS011;53444;45.822;16.092;2023-03-14T14:00:39;2.53;;;1.45;;
66585;SDS011;53444;45.822;16.092;2023-03-14T14:03:11;2.88;;;1.15;;
66585;SDS011;53444;45.822;16.092;2023-03-14T14:05:39;1.77;;;1.20;;
66585;SDS011;53444;45.822;16.092;2023-03-14T14:08:06;5.20;;;2.17;;
66585;SDS011;53444;45.822;16.092;2023-03-14T14:10:41;2.53;;;1.43;;
66585;SDS011;53444;45.822;16.092;2023-03-14T14:13:10;2.33;;;1.38;;
66585;SDS011;53444;45.822;16.092;2023-03-14T14:15:56;3.92;;;1.75;;
66585;SDS011;53444;45.822;16.092;2023-03-14T14:18:47;3.10;;;1.80;;
66585;SDS011;53444;45.822;16.092;2023-03-14T14:21:14;5.10;;;2.08;;
66585;SDS011;53444;45.822;16.092;2023-03-14T14:23:43;2.70;;;1.47;;
66585;SDS011;53444;45.822;16.092;2023-03-14T14:26:13;4.90;;;2.03;;
66585;SDS011;53444;45.822;16.092;2023-03-14T14:28:43;4.70;;;1.75;;
66585;SDS011;53444;45.822;16.092;2023-03-14T14:31:18;4.85;;;1.50;;
66585;SDS011;53444;45.822;16.092;2023-03-14T14:33:54;5.35;;;2.90;;
66585;SDS011;53444;45.822;16.092;2023-03-14T14:36:23;4.27;;;1.60;;
66585;SDS011;53444;45.822;16.092;2023-03-14T14:39:03;5.28;;;1.80;;
66585;SDS011;53444;45.822;16.092;2023-03-14T14:41:35;2.67;;;1.50;;
66585;SDS011;53444;45.822;16.092;2023-03-14T14:44:10;5.00;;;2.63;;
66585;SDS011;53444;45.822;16.092;2023-03-14T14:46:47;9.70;;;3.60;;
66585;SDS011;53444;45.822;16.092;2023-03-14T14:49:19;3.03;;;1.90;;
66585;SDS011;53444;45.822;16.092;2023-03-14T14:52:05;8.65;;;3.20;;
66585;SDS011;53444;45.822;16.092;2023-03-14T14:54:57;4.72;;;2.90;;
66585;SDS011;53444;45.822;16.092;2023-03-14T15:00:41;2.97;;;2.10;;
66585;SDS011;53444;45.822;16.092;2023-03-14T15:03:31;5.70;;;2.70;;
66585;SDS011;53444;45.822;16.092;2023-03-14T15:09:43;4.85;;;2.60;;
66585;SDS011;53444;45.822;16.092;2023-03-14T15:12:28;5.35;;;2.90;;
66585;SDS011;53444;45.822;16.092;2023-03-14T15:17:53;4.60;;;3.10;;
66585;SDS011;53444;45.822;16.092;2023-03-14T15:20:22;5.97;;;3.05;;
66585;SDS011;53444;45.822;16.092;2023-03-14T15:22:52;5.32;;;3.55;;
66585;SDS011;53444;45.822;16.092;2023-03-14T15:25:20;4.78;;;2.75;;
66585;SDS011;53444;45.822;16.092;2023-03-14T15:27:47;5.35;;;2.53;;
66585;SDS011;53444;45.822;16.092;2023-03-14T15:30:14;5.43;;;2.43;;
66585;SDS011;53444;45.822;16.092;2023-03-14T15:32:42;3.80;;;2.45;;
66585;SDS011;53444;45.822;16.092;2023-03-14T15:35:09;4.93;;;2.47;;
66585;SDS011;53444;45.822;16.092;2023-03-14T15:37:36;5.82;;;3.33;;
66585;SDS011;53444;45.822;16.092;2023-03-14T15:40:06;6.38;;;3.17;;
66585;SDS011;53444;45.822;16.092;2023-03-14T15:42:48;4.97;;;2.83;;
66585;SDS011;53444;45.822;16.092;2023-03-14T15:45:15;8.88;;;3.42;;
66585;SDS011;53444;45.822;16.092;2023-03-14T15:47:43;13.40;;;5.07;;
66585;SDS011;53444;45.822;16.092;2023-03-14T15:50:10;10.85;;;4.80;;
66585;SDS011;53444;45.822;16.092;2023-03-14T15:52:37;23.40;;;8.05;;
66585;SDS011;53444;45.822;16.092;2023-03-14T15:55:06;7.53;;;3.30;;